地図

経路データ

SID SEASON NUMBER BASIN SUBBASIN NAME ISO_TIME NATURE LAT LON WMO_WIND WMO_PRES WMO_AGENCY TRACK_TYPE DIST2LAND LANDFALL IFLAG USA_AGENCY USA_ATCF_ID USA_LAT USA_LON USA_RECORD USA_STATUS USA_WIND USA_PRES USA_SSHS USA_R34_NE USA_R34_SE USA_R34_SW USA_R34_NW USA_R50_NE USA_R50_SE USA_R50_SW USA_R50_NW USA_R64_NE USA_R64_SE USA_R64_SW USA_R64_NW USA_POCI USA_ROCI USA_RMW USA_EYE TOKYO_LAT TOKYO_LON TOKYO_GRADE TOKYO_WIND TOKYO_PRES TOKYO_R50_DIR TOKYO_R50_LONG TOKYO_R50_SHORT TOKYO_R30_DIR TOKYO_R30_LONG TOKYO_R30_SHORT TOKYO_LAND CMA_LAT CMA_LON CMA_CAT CMA_WIND CMA_PRES HKO_LAT HKO_LON HKO_CAT HKO_WIND HKO_PRES NEWDELHI_LAT NEWDELHI_LON NEWDELHI_GRADE NEWDELHI_WIND NEWDELHI_PRES NEWDELHI_CI NEWDELHI_DP NEWDELHI_POCI REUNION_LAT REUNION_LON REUNION_TYPE REUNION_WIND REUNION_PRES REUNION_TNUM REUNION_CI REUNION_RMW REUNION_R34_NE REUNION_R34_SE REUNION_R34_SW REUNION_R34_NW REUNION_R50_NE REUNION_R50_SE REUNION_R50_SW REUNION_R50_NW REUNION_R64_NE REUNION_R64_SE REUNION_R64_SW REUNION_R64_NW BOM_LAT BOM_LON BOM_TYPE BOM_WIND BOM_PRES BOM_TNUM BOM_CI BOM_RMW BOM_R34_NE BOM_R34_SE BOM_R34_SW BOM_R34_NW BOM_R50_NE BOM_R50_SE BOM_R50_SW BOM_R50_NW BOM_R64_NE BOM_R64_SE BOM_R64_SW BOM_R64_NW BOM_ROCI BOM_POCI BOM_EYE BOM_POS_METHOD BOM_PRES_METHOD NADI_LAT NADI_LON NADI_CAT NADI_WIND NADI_PRES WELLINGTON_LAT WELLINGTON_LON WELLINGTON_WIND WELLINGTON_PRES DS824_LAT DS824_LON DS824_STAGE DS824_WIND DS824_PRES TD9636_LAT TD9636_LON TD9636_STAGE TD9636_WIND TD9636_PRES TD9635_LAT TD9635_LON TD9635_WIND TD9635_PRES TD9635_ROCI NEUMANN_LAT NEUMANN_LON NEUMANN_CLASS NEUMANN_WIND NEUMANN_PRES MLC_LAT MLC_LON MLC_CLASS MLC_WIND MLC_PRES USA_GUST BOM_GUST BOM_GUST_PER REUNION_GUST REUNION_GUST_PER USA_SEAHGT USA_SEARAD_NE USA_SEARAD_SE USA_SEARAD_SW USA_SEARAD_NW STORM_SPEED STORM_DIR
1945023S06075 1945 5 SI MM NOT_NAMED 1945-01-23 06:00:00 NR -5.80000 75.4000 reunion main 1430 1430 _____O________ -1 -5.80000 75.4000 99 9.90000 3 223
1945023S06075 1945 5 SI MM NOT_NAMED 1945-01-23 09:00:00 NR -5.90743 75.2944 main 1444 1444 _____P________ -1 -5.90743 75.2944 99 3 224
1945023S06075 1945 5 SI MM NOT_NAMED 1945-01-23 12:00:00 NR -6.01414 75.1893 main 1459 1459 _____P________ -1 -6.01414 75.1893 99 3 225
1945023S06075 1945 5 SI MM NOT_NAMED 1945-01-23 15:00:00 NR -6.11943 75.0852 main 1473 1473 _____P________ -1 -6.11943 75.0852 99 3 225
1945023S06075 1945 5 SI MM NOT_NAMED 1945-01-23 18:00:00 NR -6.22260 74.9827 main 1488 1488 _____P________ -1 -6.22260 74.9827 99 3 224
1945023S06075 1945 5 SI MM NOT_NAMED 1945-01-23 21:00:00 NR -6.32294 74.8824 main 1503 1503 _____P________ -1 -6.32294 74.8824 99 3 225
1945023S06075 1945 5 SI MM NOT_NAMED 1945-01-24 00:00:00 NR -6.41975 74.7848 main 1517 1517 _____P________ -1 -6.41975 74.7848 99 3 225
1945023S06075 1945 5 SI MM NOT_NAMED 1945-01-24 03:00:00 NR -6.51234 74.6905 main 1532 1532 _____P________ -1 -6.51234 74.6905 99 2 243
1945023S06075 1945 5 SI MM NOT_NAMED 1945-01-24 06:00:00 TS -6.51429 74.6000 reunion main 1537 1537 O____O___OO___ jtwc_sh SH031945 -6.40000 74.6000 -1 -6.60000 74.6000 99 9.90000 -6.40000 74.6000 TC 25 -6.40000 74.6000 1 2 248
1945023S06075 1945 5 SI MM NOT_NAMED 1945-01-24 09:00:00 TS -6.57333 74.5345 main 1552 1552 P____P___PP___ SH031945 -6.50000 74.5625 -1 -6.68254 74.5135 99 -6.50000 74.5625 TC 25 -6.50158 74.5203 1 2 224
1945023S06075 1945 5 SI MM NOT_NAMED 1945-01-24 12:00:00 TS -6.65037 74.4651 main 1562 1562 O____P___OP___ jtwc_sh SH031945 -6.60000 74.5000 -1 -6.76181 74.4298 99 -6.60000 74.5000 TC 25 -6.60252 74.4426 1 2 224
1945023S06075 1945 5 SI MM NOT_NAMED 1945-01-24 15:00:00 TS -6.73559 74.3790 main 1566 1566 P____P___PP___ SH031945 -6.70001 74.4000 -1 -6.84015 74.3474 99 -6.70001 74.4000 TC 25 -6.70220 74.3685 1 3 224
1945023S06075 1945 5 SI MM NOT_NAMED 1945-01-24 18:00:00 TS -6.82998 74.2912 main 1581 1581 O____P___OO___ jtwc_sh SH031945 -6.80000 74.3000 -1 -6.91991 74.2647 99 -6.80000 74.3000 TC 25 -6.80000 74.3000 1 2 218
1945023S06075 1945 5 SI MM NOT_NAMED 1945-01-24 21:00:00 TS -6.92483 74.2293 main 1596 1596 P____P___PP___ SH031945 -6.89999 74.2500 -1 -7.00343 74.1802 99 -6.89999 74.2500 TC 25 -6.89592 74.2372 1 2 213
1945023S06075 1945 5 SI MM NOT_NAMED 1945-01-25 00:00:00 TS -7.02138 74.1662 main 1606 1606 O____P___OP___ jtwc_sh SH031945 -7.00000 74.2000 -1 -7.09305 74.0923 99 -7.00000 74.2000 TC 25 -6.99247 74.1724 1 2 217
1945023S06075 1945 5 SI MM NOT_NAMED 1945-01-25 03:00:00 TS -7.12098 74.0815 main 1621 1621 P____P___PP___ SH031945 -7.10000 74.1150 -1 -7.19113 73.9994 99 -7.10000 74.1150 TC 25 -7.09278 74.0965 1 3 223
1945023S06075 1945 5 SI MM NOT_NAMED 1945-01-25 06:00:00 TS -7.22500 73.9750 reunion main 1636 1636 O____O___OO___ jtwc_sh SH031945 -7.20000 74.0000 -1 -7.30000 73.9000 99 9.90000 -7.20000 74.0000 TC 25 -7.20000 74.0000 1 3 229
1945023S06075 1945 5 SI MM NOT_NAMED 1945-01-25 09:00:00 TS -7.32899 73.8447 main 1655 1655 P____P___PP___ SH031945 -7.29250 73.8575 -1 -7.41717 73.7965 99 -7.29250 73.8575 TC 25 -7.31377 73.8675 1 4 231
1945023S06075 1945 5 SI MM NOT_NAMED 1945-01-25 12:00:00 TS -7.44469 73.7007 main 1670 1670 O____P___OP___ jtwc_sh SH031945 -7.40000 73.7000 -1 -7.54371 73.6876 99 -7.40000 73.7000 TC 25 -7.43503 73.7150 1 4 229
1945023S06075 1945 5 SI MM NOT_NAMED 1945-01-25 15:00:00 TS -7.58210 73.5532 main 1695 1695 P____P___PP___ SH031945 -7.54250 73.5425 -1 -7.67963 73.5729 99 -7.54250 73.5425 TC 25 -7.56377 73.5550 1 4 225
1945023S06075 1945 5 SI MM NOT_NAMED 1945-01-25 18:00:00 TS -7.73123 73.4130 main 1715 1715 O____P___OO___ jtwc_sh SH031945 -7.70000 73.4000 -1 -7.82493 73.4521 99 -7.70000 73.4000 TC 25 -7.70000 73.4000 1 4 221
1945023S06075 1945 5 SI MM NOT_NAMED 1945-01-25 21:00:00 TS -7.87653 73.2991 main 1740 1740 P____P___PP___ SH031945 -7.84999 73.3000 -1 -7.97961 73.3248 99 -7.84999 73.3000 TC 25 -7.82653 73.2718 1 4 218
1945023S06075 1945 5 SI MM NOT_NAMED 1945-01-26 00:00:00 TS -8.02654 73.1851 main 1755 1755 O____P___OP___ jtwc_sh SH031945 -8.00000 73.2000 -1 -8.14368 73.1906 99 -8.00000 73.2000 TC 25 -7.96246 73.1499 1 4 219
1945023S06075 1945 5 SI MM NOT_NAMED 1945-01-26 03:00:00 TS -8.17607 73.0480 main 1785 1785 P____P___PP___ SH031945 -8.13500 73.0575 -1 -8.31714 73.0491 99 -8.13500 73.0575 TC 25 -8.11716 73.0280 1 4 221
1945023S06075 1945 5 SI MM NOT_NAMED 1945-01-26 06:00:00 TS -8.35000 72.9000 reunion main 1800 1800 O____O___OO___ jtwc_sh SH031945 -8.30000 72.9000 -1 -8.50000 72.9000 99 9.90000 -8.30000 72.9000 TC 25 -8.30000 72.9000 1 5 216
1945023S06075 1945 5 SI MM NOT_NAMED 1945-01-26 09:00:00 TS -8.57605 72.7489 main 1840 1840 P____P___PP___ SH031945 -8.53500 72.7500 -1 -8.70080 72.7342 99 -8.53500 72.7500 TC 25 -8.53342 72.7613 1 6 213
1945023S06075 1945 5 SI MM NOT_NAMED 1945-01-26 12:00:00 TS -8.82651 72.5935 main 1865 1865 O____P___OP___ jtwc_sh SH031945 -8.80000 72.6000 -1 -8.91357 72.5588 99 -8.80000 72.6000 TC 25 -8.79248 72.6150 1 6 212
1945023S06075 1945 5 SI MM NOT_NAMED 1945-01-26 15:00:00 TS -9.07606 72.4384 main 1905 1905 P____P___PP___ SH031945 -9.05748 72.4575 -1 -9.13398 72.3773 99 -9.05748 72.4575 TC 25 -9.05529 72.4613 1 6 213
1945023S06075 1945 5 SI MM NOT_NAMED 1945-01-26 18:00:00 TS -9.31443 72.2733 main 1930 1930 O____P___OO___ jtwc_sh SH031945 -9.30000 72.3000 -1 -9.35772 72.1931 99 -9.30000 72.3000 TC 25 -9.30000 72.3000 1 6 218
1945023S06075 1945 5 SI MM NOT_NAMED 1945-01-26 21:00:00 TS -9.52880 72.0824 main 1948 1917 P____P___PP___ SH031945 -9.51501 72.1000 -1 -9.58048 72.0097 99 -9.51501 72.1000 TC 25 -9.50471 72.1200 1 6 223
1945023S06075 1945 5 SI MM NOT_NAMED 1945-01-27 00:00:00 TS -9.72138 71.8914 main 1917 1886 O____P___OP___ jtwc_sh SH031945 -9.70000 71.9000 -1 -9.79798 71.8307 99 -9.70000 71.9000 TC 25 -9.68754 71.9350 1 5 224
1945023S06075 1945 5 SI MM NOT_NAMED 1945-01-27 03:00:00 TS -9.89312 71.7218 main 1886 1870 P____P___PP___ SH031945 -9.85749 71.7350 -1 -10.0059 71.6596 99 -9.85749 71.7350 TC 25 -9.85159 71.7575 1 5 223
1945023S06075 1945 5 SI MM NOT_NAMED 1945-01-27 06:00:00 TS -10.0500 71.5750 reunion main 1870 1848 O____O___OO___ jtwc_sh SH031945 -10.0000 71.6000 -1 -10.2000 71.5000 99 9.90000 -10.0000 71.6000 TC 25 -10.0000 71.6000 1 4 221
1945023S06075 1945 5 SI MM NOT_NAMED 1945-01-27 09:00:00 TS -10.1966 71.4591 main 1848 1832 P____P___PP___ SH031945 -10.1575 71.4925 -1 -10.3403 71.3733 99 -10.1575 71.4925 TC 25 -10.1312 71.4783 1 4 218
1945023S06075 1945 5 SI MM NOT_NAMED 1945-01-27 12:00:00 TS -10.3287 71.3589 main 1832 1817 O____P___OP___ jtwc_sh SH031945 -10.3000 71.4000 -1 -10.4650 71.2584 99 -10.3000 71.4000 TC 25 -10.2499 71.3773 1 3 219
1945023S06075 1945 5 SI MM NOT_NAMED 1945-01-27 15:00:00 TS -10.4375 71.2598 main 1817 1801 P____P___PP___ SH031945 -10.4000 71.3000 -1 -10.5815 71.1514 99 -10.4000 71.3000 TC 25 -10.3687 71.2877 1 3 221
1945023S06075 1945 5 SI MM NOT_NAMED 1945-01-27 18:00:00 TS -10.5493 71.1621 main 1801 1779 O____P___OO___ jtwc_sh SH031945 -10.5000 71.2000 -1 -10.6971 71.0485 99 -10.5000 71.2000 TC 25 -10.5000 71.2000 1 3 218
1945023S06075 1945 5 SI MM NOT_NAMED 1945-01-27 21:00:00 TS -10.6834 71.0655 main 1779 1763 P____P___PP___ SH031945 -10.6350 71.1000 -1 -10.8194 70.9458 99 -10.6350 71.1000 TC 25 -10.6443 71.1161 1 4 213
1945023S06075 1945 5 SI MM NOT_NAMED 1945-01-28 00:00:00 TS -10.8401 70.9673 main 1763 1741 O____P___OP___ jtwc_sh SH031945 -10.8000 71.0000 -1 -10.9556 70.8394 99 -10.8000 71.0000 TC 25 -10.8049 71.0298 1 4 209
1945023S06075 1945 5 SI MM NOT_NAMED 1945-01-28 03:00:00 TS -11.0178 70.8710 main 1741 1719 P____P___PP___ SH031945 -10.9850 70.9149 -1 -11.1134 70.7255 99 -10.9850 70.9149 TC 25 -10.9881 70.9285 1 4 209
1945023S06075 1945 5 SI MM NOT_NAMED 1945-01-28 06:00:00 TS -11.2250 70.7500 reunion main 1719 1688 O____O___OO___ jtwc_sh SH031945 -11.2000 70.8000 -1 -11.3000 70.6000 99 9.90000 -11.2000 70.8000 TC 25 -11.2000 70.8000 1 5 214
1945023S06075 1945 5 SI MM NOT_NAMED 1945-01-28 09:00:00 TS -11.4548 70.5738 main 1681 1650 P____P___PP___ SH031945 -11.4350 70.6150 -1 -11.5111 70.4406 99 -11.4350 70.6150 TC 25 -11.4382 70.6247 1 6 217
1945023S06075 1945 5 SI MM NOT_NAMED 1945-01-28 12:00:00 TS -11.7128 70.3730 main 1650 1613 O____P___OP___ jtwc_sh SH031945 -11.7000 70.4000 -1 -11.7461 70.2696 99 -11.7000 70.4000 TC 25 -11.7051 70.4226 1 7 216
1945023S06075 1945 5 SI MM NOT_NAMED 1945-01-28 15:00:00 TS -11.9963 70.1712 main 1613 1576 P____P___PP___ SH031945 -11.9925 70.1925 -1 -12.0057 70.0906 99 -11.9925 70.1925 TC 25 -11.9944 70.2091 1 7 214
1945023S06075 1945 5 SI MM NOT_NAMED 1945-01-28 18:00:00 TS -12.2977 69.9768 main 1576 1539 O____P___OO___ jtwc_sh SH031945 -12.3000 70.0000 -1 -12.2907 69.9072 99 -12.3000 70.0000 TC 25 -12.3000 70.0000 1 7 211
1945023S06075 1945 5 SI MM NOT_NAMED 1945-01-28 21:00:00 TS -12.5953 69.8101 main 1539 1511 P____P___PP___ SH031945 -12.5925 69.8499 -1 -12.6019 69.7229 99 -12.5925 69.8499 TC 25 -12.5943 69.8176 1 7 208
1945023S06075 1945 5 SI MM NOT_NAMED 1945-01-29 00:00:00 TS -12.9112 69.6459 main 1502 1474 O____P___OP___ jtwc_sh SH031945 -12.9000 69.7000 -1 -12.9399 69.5413 99 -12.9000 69.7000 TC 25 -12.9049 69.6422 1 7 208
1945023S06075 1945 5 SI MM NOT_NAMED 1945-01-29 03:00:00 TS -13.2535 69.4591 main 1468 1432 P____P___PP___ SH031945 -13.2350 69.5000 -1 -13.3057 69.3658 99 -13.2350 69.5000 TC 25 -13.2381 69.4707 1 8 207
1945023S06075 1945 5 SI MM NOT_NAMED 1945-01-29 06:00:00 TS -13.6250 69.2750 reunion main 1432 1390 O____O___OO___ jtwc_sh SH031945 -13.6000 69.3000 -1 -13.7000 69.2000 99 9.90000 -13.6000 69.3000 TC 25 -13.6000 69.3000 1 8 203
1945023S06075 1945 5 SI MM NOT_NAMED 1945-01-29 09:00:00 TS -14.0262 69.1275 main 1390 1358 P____P___PP___ SH031945 -13.9850 69.1499 -1 -14.1590 69.1013 99 -13.9850 69.1499 TC 25 -13.9760 69.1088 1 9 199
1945023S06075 1945 5 SI MM NOT_NAMED 1945-01-29 12:00:00 TS -14.4594 68.9842 main 1352 1312 O____P___OP___ jtwc_sh SH031945 -14.4000 69.0000 -1 -14.6549 69.0167 99 -14.4000 69.0000 TC 25 -14.3826 68.9201 1 9 199
1945023S06075 1945 5 SI MM NOT_NAMED 1945-01-29 15:00:00 TS -14.9091 68.8130 main 1312 1276 P____P___PP___ SH031945 -14.8201 68.7851 -1 -15.1733 68.9355 99 -14.8201 68.7851 TC 25 -14.8229 68.7463 1 10 198
1945023S06075 1945 5 SI MM NOT_NAMED 1945-01-29 18:00:00 TS -15.4000 68.6617 main 1276 1242 O____P___OO___ jtwc_sh SH031945 -15.3000 68.6000 -1 -15.6999 68.8469 99 -15.3000 68.6000 TC 25 -15.3000 68.6000 1 11 191
1945023S06075 1945 5 SI MM NOT_NAMED 1945-01-29 21:00:00 TS -15.9679 68.5914 main 1238 1206 P____P___PP___ SH031945 -15.8925 68.5348 -1 -16.2202 68.7401 99 -15.8925 68.5348 TC 25 -15.8664 68.5562 1 12 186
1945023S06075 1945 5 SI MM NOT_NAMED 1945-01-30 00:00:00 TS -16.5448 68.5338 main 1206 1182 O____P___OP___ jtwc_sh SH031945 -16.5000 68.5000 -1 -16.7200 68.6040 99 -16.5000 68.5000 TC 25 -16.4592 68.5311 1 11 187
1945023S06075 1945 5 SI MM NOT_NAMED 1945-01-30 03:00:00 TS -17.0780 68.4495 main 1172 1147 P____P___PP___ SH031945 -17.0524 68.4523 -1 -17.1847 68.4277 99 -17.0524 68.4523 TC 25 -17.0225 68.4656 1 10 194
1945023S06075 1945 5 SI MM NOT_NAMED 1945-01-30 06:00:00 TS -17.5250 68.2750 reunion main 1147 1107 O____O___OO___ jtwc_sh SH031945 -17.5000 68.3000 -1 -17.6000 68.2000 99 9.90000 -17.5000 68.3000 TC 25 -17.5000 68.3000 1 9 212
1945023S06075 1945 5 SI MM NOT_NAMED 1945-01-30 09:00:00 TS -17.8401 67.9448 main 1097 1047 P____P___PP___ SH031945 -17.7950 67.9600 -1 -17.9391 67.9174 99 -17.7950 67.9600 TC 25 -17.8313 67.9419 1 9 233
1945023S06075 1945 5 SI MM NOT_NAMED 1945-01-30 12:00:00 TS -18.0764 67.5177 main 1047 1001 O____P___OP___ jtwc_sh SH031945 -18.0000 67.5000 -1 -18.2348 67.5878 99 -18.0000 67.5000 TC 25 -18.0710 67.4828 1 10 242
1945023S06075 1945 5 SI MM NOT_NAMED 1945-01-30 15:00:00 TS -18.2928 67.0417 main 990 944 P____P___PP___ SH031945 -18.2152 66.9850 -1 -18.4906 67.2144 99 -18.2152 66.9850 TC 25 -18.2501 66.9823 1 10 246
1945023S06075 1945 5 SI MM NOT_NAMED 1945-01-30 18:00:00 TS -18.4776 66.5751 main 944 900 O____P___OO___ jtwc_sh SH031945 -18.4000 66.5000 -1 -18.7103 66.8003 99 -18.4000 66.5000 TC 25 -18.4000 66.5000 1 9 246
1945023S06075 1945 5 SI MM NOT_NAMED 1945-01-30 21:00:00 TS -18.6456 66.2168 main 900 865 P____P___PP___ SH031945 -18.5572 66.1848 -1 -18.8974 66.3487 99 -18.5572 66.1848 TC 25 -18.5707 66.1489 1 7 245
1945023S06075 1945 5 SI MM NOT_NAMED 1945-01-31 00:00:00 TS -18.7942 65.8710 main 865 821 O____P___OP___ jtwc_sh SH031945 -18.7000 65.9000 -1 -19.0556 65.8626 99 -18.7000 65.9000 TC 25 -18.7212 65.8215 1 8 247
1945023S06075 1945 5 SI MM NOT_NAMED 1945-01-31 03:00:00 TS -18.9374 65.4721 main 821 775 P____P___PP___ SH031945 -18.8499 65.5299 -1 -19.1886 65.3453 99 -18.8499 65.5299 TC 25 -18.8612 65.4833 1 8 251
1945023S06075 1945 5 SI MM NOT_NAMED 1945-01-31 06:00:00 TS -19.0750 65.0250 reunion main 765 711 O____O___OO___ jtwc_sh SH031945 -19.0000 65.1000 -1 -19.3000 64.8000 99 9.90000 -19.0000 65.1000 TC 25 -19.0000 65.1000 1 9 253
1945023S06075 1945 5 SI MM NOT_NAMED 1945-01-31 09:00:00 TS -19.2139 64.5161 main 711 658 P____P___PP___ SH031945 -19.1499 64.6224 -1 -19.4054 64.1984 99 -19.1499 64.6224 TC 25 -19.1502 64.6212 1 10 255
1945023S06075 1945 5 SI MM NOT_NAMED 1945-01-31 12:00:00 TS -19.3457 63.9630 main 658 592 O____P___OP___ jtwc_sh SH031945 -19.3000 64.1000 -1 -19.4823 63.5571 99 -19.3000 64.1000 TC 25 -19.3003 64.0949 1 11 256
1945023S06075 1945 5 SI MM NOT_NAMED 1945-01-31 15:00:00 TS -19.4717 63.3847 main 592 528 P____P___PP___ SH031945 -19.4500 63.5499 -1 -19.5368 62.8926 99 -19.4500 63.5499 TC 25 -19.4502 63.5461 1 11 257
1945023S06075 1945 5 SI MM NOT_NAMED 1945-01-31 18:00:00 TS -19.5938 62.8054 main 528 474 O____P___OO___ jtwc_sh SH031945 -19.6000 63.0000 -1 -19.5751 62.2216 99 -19.6000 63.0000 TC 25 -19.6000 63.0000 1 11 257
1945023S06075 1945 5 SI MM NOT_NAMED 1945-01-31 21:00:00 TS -19.7174 62.2535 main 474 411 P____P___PP___ SH031945 -19.7498 62.4924 -1 -19.6037 61.5604 99 -19.7498 62.4924 TC 30 -19.7662 62.4686 1 11 256
1945023S06075 1945 5 SI MM NOT_NAMED 1945-02-01 00:00:00 TS -19.8398 61.7184 main 411 356 O____P___OP___ jtwc_sh SH031945 -19.9000 62.0000 -1 -19.6293 60.9256 99 -19.9000 62.0000 TC 35 -19.9300 61.9479 1 10 256
1945023S06075 1945 5 SI MM NOT_NAMED 1945-02-01 03:00:00 TS -19.9670 61.1854 main 356 303 P____P___PP___ SH031945 -20.0650 61.4776 -1 -19.6591 60.3334 99 -20.0650 61.4776 TC 50 -20.0788 61.4531 1 10 256
1945023S06075 1945 5 SI MM NOT_NAMED 1945-02-01 06:00:00 TS -20.0750 60.7000 reunion main 303 261 O____O___OO___ jtwc_sh SH031945 -20.2000 61.0000 -1 -19.7000 59.8000 99 9.90000 -20.2000 61.0000 TC 65 -20.2000 61.0000 4 8 258
1945023S06075 1945 5 SI MM NOT_NAMED 1945-02-01 09:00:00 TS -20.1430 60.3054 main 261 229 P____P___PP___ SH031945 -20.2648 60.6273 -1 -19.7808 59.3527 99 -20.2648 60.6273 TC 65 -20.2617 60.6142 4 7 260
1945023S06075 1945 5 SI MM NOT_NAMED 1945-02-01 12:00:00 TS -20.1925 59.9565 main 229 188 O____P___OP___ jtwc_sh SH031945 -20.3000 60.3000 -1 -19.8712 58.9570 99 -20.3000 60.3000 TC 65 -20.2989 60.2689 4 7 261
1945023S06075 1945 5 SI MM NOT_NAMED 1945-02-01 15:00:00 TS -20.2439 59.6155 main 188 156 P____P___PP___ SH031945 -20.3349 59.9574 -1 -19.9692 58.6080 99 -20.3349 59.9574 TC 65 -20.3368 59.9392 4 7 259
1945023S06075 1945 5 SI MM NOT_NAMED 1945-02-01 18:00:00 TS -20.3182 59.2752 main 156 115 O____P___OO___ jtwc_sh SH031945 -20.4000 59.6000 -1 -20.0728 58.3010 99 -20.4000 59.6000 TC 65 -20.4000 59.6000 4 7 253
1945023S06075 1945 5 SI MM NOT_NAMED 1945-02-01 21:00:00 TS -20.4459 58.9092 main 115 89 P____P___PP___ SH031945 -20.5350 59.2075 -1 -20.1798 58.0313 99 -20.5350 59.2075 TC 65 -20.5337 59.1905 4 7 248
1945023S06075 1945 5 SI MM NOT_NAMED 1945-02-02 00:00:00 TS -20.5953 58.5413 main 80 56 O____P___OP___ jtwc_sh SH031945 -20.7000 58.8000 -1 -20.2882 57.7944 99 -20.7000 58.8000 TC 65 -20.6929 58.7708 4 7 247
1945023S06075 1945 5 SI MM NOT_NAMED 1945-02-02 03:00:00 TS -20.7416 58.1765 main 56 39 P____P___PP___ SH031945 -20.8575 58.3775 -1 -20.3957 57.5855 99 -20.8575 58.3775 TC 65 -20.8556 58.3655 4 7 247
1945023S06075 1945 5 SI MM NOT_NAMED 1945-02-02 06:00:00 TS -20.8750 57.8500 reunion main 49 44 O____O___OO___ jtwc_sh SH031945 -21.0000 58.0000 -1 -20.5000 57.4000 99 9.90000 -21.0000 58.0000 TC 65 -21.0000 58.0000 4 6 248
1945023S06075 1945 5 SI MM NOT_NAMED 1945-02-02 09:00:00 TS -20.9692 57.5850 main 55 55 P____P___PP___ SH031945 -21.1148 57.7274 -1 -20.5552 57.1828 99 -21.1148 57.7274 TC 65 -21.0920 57.7024 4 5 250
1945023S06075 1945 5 SI MM NOT_NAMED 1945-02-02 12:00:00 TS -21.0421 57.3598 main 55 55 O____P___OP___ jtwc_sh SH031945 -21.2000 57.5000 -1 -20.6041 56.9921 99 -21.2000 57.5000 TC 65 -21.1644 57.4469 4 4 253
1945023S06075 1945 5 SI MM NOT_NAMED 1945-02-02 15:00:00 TS -21.0960 57.1364 main 70 70 P____P___PP___ SH031945 -21.2500 57.2499 -1 -20.6544 56.8278 99 -21.2500 57.2499 TC 65 -21.2296 57.2181 4 4 255
1945023S06075 1945 5 SI MM NOT_NAMED 1945-02-02 18:00:00 TS -21.1535 56.9225 main 88 88 O____P___OO___ jtwc_sh SH031945 -21.3000 57.0000 -1 -20.7139 56.6899 99 -21.3000 57.0000 TC 65 -21.3000 57.0000 4 4 252
1945023S06075 1945 5 SI MM NOT_NAMED 1945-02-02 21:00:00 TS -21.2278 56.7066 main 93 72 P____P___PP___ SH031945 -21.3925 56.7425 -1 -20.7905 56.5782 99 -21.3925 56.7425 TC 50 -21.3358 56.7631 4 4 247
1945023S06075 1945 5 SI MM NOT_NAMED 1945-02-03 00:00:00 TS -21.3198 56.5067 main 72 52 O____P___OP___ jtwc_sh SH031945 -21.5000 56.5000 -1 -20.8919 56.4928 99 -21.5000 56.5000 TC 35 -21.3874 56.5340 4 4 243
1945023S06075 1945 5 SI MM NOT_NAMED 1945-02-03 03:00:00 TS -21.4077 56.3327 main 52 47 P____P___PP___ SH031945 -21.5549 56.2923 -1 -21.0258 56.4334 99 -21.5549 56.2923 TC 30 -21.4952 56.3130 4 4 231
1945023S06075 1945 5 SI MM NOT_NAMED 1945-02-03 06:00:00 TS -21.5750 56.1750 reunion main 53 45 O____O___OO___ jtwc_sh SH031945 -21.7000 56.1000 -1 -21.2000 56.4000 99 9.90000 -21.7000 56.1000 TC 25 -21.7000 56.1000 1 6 212
1945023S06075 1945 5 SI MM NOT_NAMED 1945-02-03 09:00:00 TS -21.8982 56.0035 main 69 69 P____P___PP___ SH031945 -22.0400 55.9000 -1 -21.4269 56.3643 99 -22.0400 55.9000 TC 25 -22.0860 55.8495 1 8 203
1945023S06075 1945 5 SI MM NOT_NAMED 1945-02-03 12:00:00 TS -22.3139 55.8419 main 102 102 O____P___OP___ jtwc_sh SH031945 -22.5000 55.7000 -1 -21.6928 56.3556 99 -22.5000 55.7000 TC 25 -22.5627 55.6120 1 9 198
1945023S06075 1945 5 SI MM NOT_NAMED 1945-02-03 15:00:00 TS -22.7775 55.6866 main 156 156 P____P___PP___ SH031945 -23.0300 55.4778 -1 -21.9921 56.3727 99 -23.0300 55.4778 TC 25 -23.0579 55.4183 1 9 195
1945023S06075 1945 5 SI MM NOT_NAMED 1945-02-03 18:00:00 TS -23.2049 55.5785 main 201 201 O____P___OO___ jtwc_sh SH031945 -23.5000 55.3000 -1 -22.3195 56.4142 99 -23.5000 55.3000 TC 25 -23.5000 55.3000 1 7 193
1945023S06075 1945 5 SI MM NOT_NAMED 1945-02-03 21:00:00 TS -23.4619 55.5169 main 234 234 P____P___PP___ SH031945 -23.7374 55.1899 -1 -22.6695 56.4789 99 -23.7374 55.1899 TC 25 -23.7033 55.2088 1 5 184
1945023S06075 1945 5 SI MM NOT_NAMED 1945-02-04 00:00:00 TS -23.6737 55.5432 main 257 257 O____P___OP___ jtwc_sh SH031945 -23.9000 55.2000 -1 -23.0365 56.5656 99 -23.9000 55.2000 TC 25 -23.8582 55.2070 1 5 164
1945023S06075 1945 5 SI MM NOT_NAMED 1945-02-04 03:00:00 TS -23.9060 55.6591 main 279 279 P____P___PP___ SH031945 -24.0748 55.3183 -1 -23.4152 56.6731 99 -24.0748 55.3183 TC 25 -24.0591 55.3266 1 7 151
1945023S06075 1945 5 SI MM NOT_NAMED 1945-02-04 06:00:00 TS -24.2500 55.9000 reunion main 314 325 O____O___OO___ jtwc_sh SH031945 -24.4000 55.6000 -1 -23.8000 56.8000 99 9.90000 -24.4000 55.6000 TC 25 -24.4000 55.6000 1 11 150
1945023S06075 1945 5 SI MM NOT_NAMED 1945-02-04 09:00:00 TS -24.8280 56.2424 main 384 384 P____P___PP___ SH031945 -25.0173 56.0179 -1 -24.1864 56.9451 99 -25.0173 56.0179 TC 25 -25.0911 55.9889 1 15 150
1945023S06075 1945 5 SI MM NOT_NAMED 1945-02-04 12:00:00 TS -25.5215 56.7122 main 471 471 O____P___OP___ jtwc_sh SH031945 -25.8000 56.6000 -1 -24.5734 57.1064 99 -25.8000 56.6000 TC 25 -25.9125 56.5426 1 17 147
1945023S06075 1945 5 SI MM NOT_NAMED 1945-02-04 15:00:00 TS -26.2519 57.2739 main 574 574 P____P___PP___ SH031945 -26.6596 57.2814 -1 -24.9608 57.2819 99 -26.6596 57.2814 TC 25 -26.7277 57.2507 1 18 141
1945023S06075 1945 5 SI MM NOT_NAMED 1945-02-04 18:00:00 TS -26.8872 57.9424 main 657 657 O____P___OO___ jtwc_sh SH031945 -27.4000 58.1000 -1 -25.3486 57.4696 99 -27.4000 58.1000 TC 25 -27.4000 58.1000 1 16 130
1945023S06075 1945 5 SI MM NOT_NAMED 1945-02-04 21:00:00 TS -27.2966 58.6763 main 730 730 P____P___PP___ SH031945 -27.8115 58.9835 -1 -25.7366 57.6674 99 -27.8115 58.9835 TC 25 -27.8270 59.0707 1 15 115
1945023S06075 1945 5 SI MM NOT_NAMED 1945-02-05 00:00:00 TS -27.5415 59.5013 main 787 787 O____P___OP___ jtwc_sh SH031945 -28.0000 60.0000 -1 -26.1246 57.8732 99 -28.0000 60.0000 TC 25 -28.0412 60.1322 1 16 104
1945023S06075 1945 5 SI MM NOT_NAMED 1945-02-05 03:00:00 TS -27.6943 60.4141 main 849 849 P____P___PP___ SH031945 -28.0776 61.1597 -1 -26.5124 58.0848 99 -28.0776 61.1597 TC 25 -28.1097 61.2522 1 17 99
1945023S06075 1945 5 SI MM NOT_NAMED 1945-02-05 06:00:00 TS -27.8000 61.3750 reunion main 897 O____O___OO___ jtwc_sh SH031945 -28.1000 62.4000 -1 -26.9000 58.3000 99 9.90000 -28.1000 62.4000 TC 25 -28.1000 62.4000 1 17 97

IBTrACS Databaseについて

本データベースは、米国NOAAが公開する1842年以降の世界の熱帯低気圧のベストトラックデータアーカイブInternational Best Track Archive for Climate Stewardship (IBTrACS)を、ウェブで閲覧しやすい形式に変換したものです。

最終更新日:2021-10-21